METAR Data
IDs: Format: Raw Decoded Include TAF

Data at: 2113 UTC 24 Mar 2019

KTYR 242053Z 18009KT 10SM OVC039 23/16 A3003 RMK AO2 SLP162 T02330161 58015 $
KTYR 241953Z 19007KT 10SM FEW023 OVC032 22/16 A3004 RMK AO2 SLP169 T02220161 $
KTYR 241939Z 19009KT 10SM SCT024 OVC031 22/16 A3005 RMK AO2 T02170161 $
KTYR 241908Z 19010KT 10SM FEW023 OVC029 22/16 A3005 RMK AO2 T02220161 $
KTYR 241853Z 20011KT 10SM FEW023 OVC030 22/16 A3006 RMK AO2 SLP173 T02170161 $
KTYR 241753Z 21014G19KT 10SM BKN026 OVC035 22/16 A3007 RMK AO2 SLP177 T02220156 10228 20167 58010 $
KTYR 241653Z 21012KT 10SM BKN015 OVC035 21/16 A3009 RMK AO2 SLP184 T02110161 $
KTYR 241553Z 19010KT 10SM OVC012 19/16 A3010 RMK AO2 SLP188 T01890161 $
KTYR 241453Z 18010KT 10SM OVC010 18/16 A3010 RMK AO2 SLP188 T01830156 51012 $
KTYR 241353Z 20009KT 10SM BKN012 OVC025 17/15 A3009 RMK AO2 SLP185 T01720150 $
KTYR 241253Z 19009KT 10SM OVC011 17/14 A3008 RMK AO2 SLP181 T01670144 $
KTYR 241216Z 19008KT 10SM BKN013 BKN026 OVC036 17/14 A3007 RMK AO2 T01670144 $
KTYR 241210Z 19009KT 10SM SCT013 SCT026 OVC034 17/14 A3007 RMK AO2 T01670144 $
KTYR 241153Z 18011KT 10SM FEW015 BKN024 OVC033 17/14 A3006 RMK AO2 SLP176 T01670144 10172 20156 53000 $
KTYR 241053Z AUTO 19011KT 10SM OVC028 17/14 A3006 RMK AO2 SLP173 T01670139 $
KTYR 241013Z AUTO 19010KT 10SM BKN024 OVC028 17/14 A3006 RMK AO2 T01670139 $
KTYR 240953Z AUTO 19009KT 10SM FEW024 OVC032 17/14 A3006 RMK AO2 SLP173 T01670139 /
KTYR 240853Z AUTO 19011KT 10SM FEW020 16/14 A3006 RMK AO2 SLP174 T01610139 58003 $
KTYR 240753Z AUTO 19009KT 10SM CLR 16/13 A3007 RMK AO2 SLP177 T01610133 $
KTYR 240653Z AUTO 17011KT 10SM CLR 17/13 A3007 RMK AO2 SLP179 T01670133 $
KTYR 240553Z AUTO 18011KT 10SM CLR 17/13 A3007 RMK AO2 SLP178 T01720133 10217 20172 402440128 53005 $
KTYR 240453Z AUTO 18015G23KT 10SM CLR 18/13 A3006 RMK AO2 SLP174 T01830128 $
KTYR 240353Z AUTO 17014G20KT 10SM BKN060 19/11 A3006 RMK AO2 SLP175 T01890111 $
KTYR 240253Z AUTO 17015G21KT 10SM FEW110 19/11 A3006 RMK AO2 SLP174 T01940111 51008 $
KTYR 240153Z 18014G19KT 10SM OVC065 21/11 A3006 RMK AO2 SLP173 T02060106 /
KTYR 240053Z 17010KT 10SM OVC070 21/11 A3005 RMK AO2 SLP169 T02110111 $
KTYR 232353Z 17011KT 10SM FEW046 22/11 A3003 RMK AO2 SLP166 T02170106 10244 20206 55002 $
KTYR 232253Z 17013G21KT 10SM FEW090 23/09 A3003 RMK AO2 SLP164 T02280094 $
KTYR 232153Z 17012KT 10SM BKN075 23/07 A3003 RMK AO2 SLP163 T02280072 $
KTYR 232053Z 15017G22KT 10SM FEW075 SCT090 24/07 A3004 RMK AO2 SLP168 T02390072 58025 $
KTYR 231953Z 16012KT 10SM BKN075 OVC090 22/10 A3007 RMK AO2 SLP179 T02170100 $
KTYR 231853Z 19011KT 10SM OVC070 21/08 A3010 RMK AO2 SLP189 T02110083 $
KTYR 231753Z 20012G23KT 10SM SCT070 22/11 A3012 RMK AO2 SLP193 60000 T02220106 10222 20133 56014 $
KTYR 231653Z 18015G22KT 10SM CLR 20/12 A3013 RMK AO2 WSHFT 1540 RAE06 SLP197 P0000 T02000117 $
KTYR 231600Z 22012KT 10SM -RA SCT060 OVC100 15/12 A3013 RMK AO2 WSHFT 1540 P0000 T01500117 $
KTYR 231553Z 25011G18KT 10SM -RA FEW055 FEW075 OVC100 15/12 A3014 RMK AO2 WSHFT 1539 RAB36 PRESRR SLP202 P0000 T01500117 $
KTYR 231453Z 17009KT 10SM FEW065 SCT075 OVC100 15/11 A3016 RMK AO2 RAB05E20B38E49 SLP208 P0000 60000 T01500106 51026 $
KTYR 231353Z 15006KT 10SM BKN070 BKN110 14/09 A3015 RMK AO2 SLP205 T01440094 /
KTYR 231253Z 16003KT 10SM CLR 13/09 A3011 RMK AO2 SLP191 T01330089 /
KTYR 231153Z 14008KT 10SM CLR 13/08 A3008 RMK AO2 SLP181 T01330083 10161 20128 51005 $
KTYR 231053Z AUTO 16006KT 10SM CLR 14/07 A3007 RMK AO2 SLP178 T01390072 $
KTYR 230953Z AUTO 18006KT 10SM FEW075 14/07 A3008 RMK AO2 SLP182 T01390067 $